Time;durP1;ratioP1;P1;durP2;ratioP2;P2;SDS_P1;SDS_P2;PMS_P1;PMS_P2;Temp;Humidity;BMP_temperature;BMP_pressure;BME280_temperature;BME280_humidity;BME280_pressure;Samples;Min_cycle;Max_cycle;Signal;HPM_P1;HPM_P2
2023/05/25 00:02:53;;;;;;;12.55;11.35;;;23.60;67.80;;;;;;4902305;55;21072;-40
2023/05/25 00:07:54;;;;;;;11.85;10.75;;;23.60;67.80;;;;;;4741942;55;21491;-33
2023/05/25 00:12:55;;;;;;;10.93;9.93;;;23.60;67.80;;;;;;4794700;55;21017;-37
2023/05/25 00:17:56;;;;;;;12.88;11.57;;;23.60;67.80;;;;;;5042890;55;21005;-37
2023/05/25 00:22:57;;;;;;;11.90;10.73;;;23.60;67.80;;;;;;4849199;55;21025;-36
2023/05/25 00:27:58;;;;;;;12.57;11.27;;;23.60;68.40;;;;;;4788676;55;21013;-33
2023/05/25 00:33:00;;;;;;;11.75;10.55;;;23.60;67.80;;;;;;4740772;55;21619;-33
2023/05/25 00:38:01;;;;;;;11.50;10.43;;;23.60;67.80;;;;;;4740684;55;21504;-32
2023/05/25 00:43:02;;;;;;;12.07;10.93;;;23.60;67.80;;;;;;4740467;59;21001;-32
2023/05/25 00:48:03;;;;;;;12.50;11.30;;;23.60;67.80;;;;;;4846497;55;21105;-34
2023/05/25 00:53:06;;;;;;;11.68;10.57;;;23.60;67.80;;;;;;4739978;59;21133;-33
2023/05/25 00:58:10;;;;;;;11.60;10.50;;;23.60;67.70;;;;;;4765095;55;21516;-36
2023/05/25 01:03:16;;;;;;;11.35;10.25;;;23.60;67.80;;;;;;4792770;55;21077;-34
2023/05/25 01:08:20;;;;;;;12.07;10.90;;;23.60;67.80;;;;;;4750468;55;21033;-36
2023/05/25 01:13:21;;;;;;;10.73;9.75;;;23.60;67.70;;;;;;4800128;55;21646;-35
2023/05/25 01:18:22;;;;;;;10.90;9.85;;;23.60;67.80;;;;;;4749684;55;20997;-37
2023/05/25 01:23:29;;;;;;;11.65;10.45;;;23.60;67.80;;;;;;4821032;55;21495;-31
2023/05/25 01:28:45;;;;;;;11.75;10.63;;;23.60;67.80;;;;;;4801940;55;21124;-33
2023/05/25 01:33:48;;;;;;;11.23;10.15;;;23.60;67.80;;;;;;4758543;55;21539;-33
2023/05/25 01:38:50;;;;;;;11.60;10.50;;;23.60;67.80;;;;;;4751188;55;21025;-33
2023/05/25 01:43:52;;;;;;;11.43;10.40;;;23.60;67.70;;;;;;4799519;55;21042;-32
2023/05/25 01:49:31;;;;;;;11.85;9.85;;;23.60;67.70;;;;;;4790353;55;21588;-36
2023/05/25 01:54:43;;;;;;;10.98;9.98;;;23.60;67.70;;;;;;4826326;55;21155;-33
2023/05/25 01:59:46;;;;;;;11.07;9.98;;;23.60;67.70;;;;;;4786516;55;21361;-33
2023/05/25 02:04:48;;;;;;;11.38;10.32;;;23.60;67.70;;;;;;4761545;55;21018;-33
2023/05/25 02:09:51;;;;;;;11.35;10.27;;;23.60;67.70;;;;;;4848657;55;21026;-33
2023/05/25 02:14:52;;;;;;;11.73;10.52;;;23.60;67.70;;;;;;4758696;55;21105;-37
2023/05/25 02:19:53;;;;;;;10.90;9.90;;;23.60;67.70;;;;;;4926919;54;21101;-33
2023/05/25 02:24:54;;;;;;;11.43;10.32;;;23.60;67.70;;;;;;4757173;55;21061;-33
2023/05/25 02:29:55;;;;;;;11.43;10.32;;;23.60;67.70;;;;;;4740334;59;21069;-35
2023/05/25 02:34:56;;;;;;;11.98;10.88;;;23.60;67.70;;;;;;4839612;55;21057;-33
2023/05/25 02:39:56;;;;;;;11.43;10.32;;;23.60;67.80;;;;;;4738970;55;21563;-33
2023/05/25 02:44:57;;;;;;;11.02;9.93;;;23.60;67.70;;;;;;4802112;55;21116;-35
2023/05/25 02:49:58;;;;;;;11.88;10.60;;;23.60;67.70;;;;;;4779175;55;20997;-36
2023/05/25 02:54:59;;;;;;;10.82;9.77;;;23.60;67.70;;;;;;4796665;55;21062;-34
2023/05/25 03:00:00;;;;;;;10.85;9.85;;;23.60;68.40;;;;;;4740125;59;21472;-34
2023/05/25 03:05:01;;;;;;;11.20;10.20;;;23.60;67.60;;;;;;4814624;55;21017;-34
2023/05/25 03:10:03;;;;;;;10.75;9.70;;;23.60;67.60;;;;;;4792421;54;21006;-33
2023/05/25 03:15:04;;;;;;;11.60;10.50;;;23.60;67.60;;;;;;5014619;55;21089;-34
2023/05/25 03:20:09;;;;;;;11.02;10.02;;;23.60;67.60;;;;;;4776468;55;21017;-35
2023/05/25 03:25:12;;;;;;;10.55;9.55;;;23.60;67.60;;;;;;4801756;55;21069;-35
2023/05/25 03:30:13;;;;;;;10.95;9.85;;;23.60;67.60;;;;;;4757146;55;21004;-33
2023/05/25 03:35:14;;;;;;;11.63;9.80;;;23.60;68.20;;;;;;4880955;55;21076;-31
2023/05/25 03:40:15;;;;;;;10.25;9.35;;;23.60;67.60;;;;;;4744055;55;21500;-33
2023/05/25 03:45:16;;;;;;;10.50;9.50;;;23.60;67.50;;;;;;4776182;55;21077;-33
2023/05/25 03:50:17;;;;;;;11.02;9.95;;;23.60;67.50;;;;;;4963057;55;21031;-37
2023/05/25 03:55:18;;;;;;;10.70;9.70;;;23.60;67.40;;;;;;4910698;55;21085;-32
2023/05/25 04:00:19;;;;;;;10.80;9.80;;;23.60;67.40;;;;;;4940853;55;21087;-36
2023/05/25 04:05:20;;;;;;;11.23;10.13;;;23.60;67.40;;;;;;4739938;59;21523;-33
2023/05/25 04:10:21;;;;;;;10.48;9.48;;;23.60;67.50;;;;;;4777404;55;21097;-38
2023/05/25 04:15:22;;;;;;;10.40;9.40;;;23.60;67.40;;;;;;4758361;55;21096;-32
2023/05/25 04:20:23;;;;;;;10.70;9.63;;;23.60;67.30;;;;;;4819604;55;21021;-33
2023/05/25 04:25:24;;;;;;;11.12;9.45;;;23.60;67.30;;;;;;4810528;55;21021;-32
2023/05/25 04:30:25;;;;;;;10.63;9.63;;;23.50;67.30;;;;;;4743186;55;21555;-31
2023/05/25 04:35:27;;;;;;;10.60;9.60;;;23.50;67.30;;;;;;4836367;55;21049;-35
2023/05/25 04:40:28;;;;;;;10.27;9.23;;;23.50;67.20;;;;;;4798327;55;21512;-33
2023/05/25 04:45:30;;;;;;;10.43;9.43;;;23.50;67.20;;;;;;4746222;55;21073;-35
2023/05/25 04:50:31;;;;;;;10.68;9.68;;;23.50;67.10;;;;;;4996533;55;21413;-33
2023/05/25 04:55:32;;;;;;;11.57;10.38;;;23.50;67.10;;;;;;4740314;59;21041;-33
2023/05/25 05:00:33;;;;;;;11.07;9.98;;;23.50;67.00;;;;;;4971113;55;21085;-30
2023/05/25 05:05:35;;;;;;;11.73;9.85;;;23.50;67.00;;;;;;4739723;59;21011;-31
2023/05/25 05:10:39;;;;;;;11.07;9.98;;;23.50;67.60;;;;;;4781280;55;21625;-34
2023/05/25 05:15:40;;;;;;;10.52;9.57;;;23.50;67.00;;;;;;4838478;55;21462;-36
2023/05/25 05:20:41;;;;;;;10.43;9.43;;;23.50;66.90;;;;;;4860634;55;21001;-34
2023/05/25 05:25:41;;;;;;;11.60;10.40;;;23.50;66.90;;;;;;4739766;55;21081;-33
2023/05/25 05:30:45;;;;;;;10.45;9.45;;;23.50;66.80;;;;;;4754358;55;21487;-33
2023/05/25 05:35:46;;;;;;;10.93;9.93;;;23.50;66.80;;;;;;4886755;55;21041;-34
2023/05/25 05:40:47;;;;;;;10.30;9.30;;;23.50;66.80;;;;;;4860370;54;21350;-33
2023/05/25 05:45:47;;;;;;;11.43;10.20;;;23.50;66.80;;;;;;4797421;55;21940;-33
2023/05/25 05:50:48;;;;;;;11.25;10.10;;;23.50;66.80;;;;;;4889780;54;21073;-32
2023/05/25 05:55:53;;;;;;;11.30;10.20;;;23.50;66.80;;;;;;4758332;55;21030;-33
2023/05/25 06:00:55;;;;;;;10.57;9.57;;;23.50;66.70;;;;;;4854612;55;21566;-32
2023/05/25 06:05:55;;;;;;;11.05;10.05;;;23.50;66.70;;;;;;4764813;55;21029;-33
2023/05/25 06:10:56;;;;;;;11.38;10.18;;;23.50;66.60;;;;;;4828565;55;21001;-33
2023/05/25 06:15:57;;;;;;;11.45;10.25;;;23.50;66.60;;;;;;4835295;55;21017;-33
2023/05/25 06:21:00;;;;;;;11.55;10.45;;;23.50;66.60;;;;;;4852296;54;21017;-32
2023/05/25 06:26:05;;;;;;;11.95;10.75;;;23.50;66.60;;;;;;4819444;55;21088;-32
2023/05/25 06:31:06;;;;;;;11.12;10.02;;;23.50;66.50;;;;;;4776568;55;20973;-34
2023/05/25 06:36:08;;;;;;;11.50;10.40;;;23.50;66.50;;;;;;4756178;55;21029;-30
2023/05/25 06:41:11;;;;;;;11.93;10.73;;;23.50;66.50;;;;;;4832215;54;21049;-30
2023/05/25 06:46:16;;;;;;;12.15;10.85;;;23.50;66.50;;;;;;4896286;55;21575;-35
2023/05/25 06:51:17;;;;;;;12.88;11.35;;;23.50;66.40;;;;;;4740018;59;22169;-34
2023/05/25 06:56:18;;;;;;;13.30;11.98;;;23.50;66.50;;;;;;4789746;55;21065;-32
2023/05/25 07:01:19;;;;;;;13.77;12.37;;;23.50;66.40;;;;;;4799615;55;22180;-33
2023/05/25 07:06:20;;;;;;;12.95;11.65;;;23.50;66.40;;;;;;4761468;54;21121;-33
2023/05/25 07:11:24;;;;;;;13.00;11.60;;;23.50;66.40;;;;;;4740181;59;21021;-32
2023/05/25 07:16:25;;;;;;;13.95;12.25;;;23.50;66.30;;;;;;4766275;55;21528;-33
2023/05/25 07:21:26;;;;;;;12.90;11.50;;;23.60;66.40;;;;;;4773650;55;21077;-32
2023/05/25 07:26:27;;;;;;;14.30;12.45;;;23.50;66.30;;;;;;4743377;55;21077;-32
2023/05/25 07:31:28;;;;;;;14.77;12.25;;;23.50;66.30;;;;;;4755475;55;21535;-32
2023/05/25 07:36:29;;;;;;;14.57;11.63;;;23.50;66.30;;;;;;4740065;59;21009;-33
2023/05/25 07:41:30;;;;;;;15.85;12.70;;;23.50;66.30;;;;;;4857094;55;21018;-32
2023/05/25 07:46:31;;;;;;;14.40;12.37;;;23.50;66.30;;;;;;4743822;55;21042;-31
2023/05/25 07:51:31;;;;;;;15.65;12.10;;;23.60;66.30;;;;;;4823338;55;21030;-33
2023/05/25 07:56:32;;;;;;;14.43;12.05;;;23.60;66.30;;;;;;4755625;55;21088;-33
2023/05/25 08:01:34;;;;;;;16.12;12.90;;;23.60;66.40;;;;;;4761299;55;21034;-37
2023/05/25 08:06:35;;;;;;;15.10;12.20;;;23.60;66.30;;;;;;4753878;55;21595;-33
2023/05/25 08:11:36;;;;;;;13.85;12.35;;;23.60;66.30;;;;;;4755812;55;21057;-32
2023/05/25 08:16:37;;;;;;;16.40;12.07;;;23.60;66.20;;;;;;4760799;55;21499;-31
2023/05/25 08:21:39;;;;;;;14.77;12.73;;;23.60;66.20;;;;;;4740048;58;21034;-35
2023/05/25 08:26:40;;;;;;;14.87;12.88;;;23.60;66.30;;;;;;4766904;55;21496;-32
2023/05/25 08:31:42;;;;;;;14.65;12.13;;;23.60;66.20;;;;;;4784315;55;21507;-34
2023/05/25 08:36:43;;;;;;;14.90;12.43;;;23.60;66.20;;;;;;4740035;59;21668;-34
2023/05/25 08:41:44;;;;;;;14.98;12.88;;;23.60;66.20;;;;;;4766290;55;21353;-37
2023/05/25 08:46:49;;;;;;;14.20;12.60;;;23.60;66.20;;;;;;4783349;55;21017;-34
2023/05/25 08:51:52;;;;;;;15.70;12.57;;;23.60;66.20;;;;;;4754671;55;21073;-35
2023/05/25 08:56:58;;;;;;;16.05;13.00;;;23.60;66.20;;;;;;4739936;59;21037;-33
2023/05/25 09:02:24;;;;;;;13.52;12.13;;;23.60;66.30;;;;;;4789823;55;21025;-32
2023/05/25 09:07:27;;;;;;;14.27;12.40;;;23.60;66.20;;;;;;4740698;55;20997;-32
2023/05/25 09:12:32;;;;;;;15.77;13.15;;;23.60;66.20;;;;;;4739738;59;21027;-34
2023/05/25 09:17:33;;;;;;;13.48;12.13;;;23.60;66.30;;;;;;4746040;55;21444;-32
2023/05/25 09:22:35;;;;;;;15.05;13.35;;;23.60;66.30;;;;;;4740070;55;21005;-33
2023/05/25 09:27:36;;;;;;;14.38;12.07;;;23.60;66.30;;;;;;4739247;59;21021;-32
2023/05/25 09:32:38;;;;;;;14.77;12.90;;;23.60;66.20;;;;;;4779515;55;21547;-34
2023/05/25 09:37:43;;;;;;;13.95;12.55;;;23.60;66.30;;;;;;4760027;54;21586;-32
2023/05/25 09:42:44;;;;;;;14.13;12.65;;;23.60;66.30;;;;;;4803969;55;21519;-33
2023/05/25 09:47:45;;;;;;;14.87;12.63;;;23.60;66.30;;;;;;4754472;55;21503;-34
2023/05/25 09:52:47;;;;;;;13.52;12.13;;;23.60;66.30;;;;;;4753814;55;21579;-36
2023/05/25 09:57:53;;;;;;;14.50;12.82;;;23.60;66.30;;;;;;4739667;59;21101;-33
2023/05/25 10:02:54;;;;;;;13.82;12.07;;;23.60;66.30;;;;;;4740434;59;21494;-36
2023/05/25 10:07:56;;;;;;;13.57;12.15;;;23.60;66.30;;;;;;4808163;55;21053;-34
2023/05/25 10:12:58;;;;;;;15.13;12.10;;;23.60;66.30;;;;;;4751961;55;21002;-33
2023/05/25 10:18:02;;;;;;;12.98;11.70;;;23.60;66.30;;;;;;4740372;55;21006;-31
2023/05/25 10:23:25;;;;;;;13.43;12.07;;;23.60;66.30;;;;;;4772175;55;21061;-33
2023/05/25 10:28:28;;;;;;;13.18;11.77;;;23.60;66.30;;;;;;4750148;54;21002;-33
2023/05/25 10:33:31;;;;;;;11.40;10.35;;;23.60;66.30;;;;;;4825955;55;21005;-33
2023/05/25 10:38:33;;;;;;;13.00;11.70;;;23.70;66.20;;;;;;4741958;55;21068;-32
2023/05/25 10:43:34;;;;;;;12.63;11.35;;;23.90;66.50;;;;;;4751256;55;21030;-32
2023/05/25 10:48:39;;;;;;;13.62;11.85;;;23.90;66.00;;;;;;4742903;55;21019;-31
2023/05/25 10:53:45;;;;;;;14.15;12.10;;;23.90;66.90;;;;;;4753854;55;21487;-34
2023/05/25 10:58:46;;;;;;;14.27;11.70;;;24.00;66.40;;;;;;4753295;55;21097;-29
2023/05/25 11:04:13;;;;;;;16.90;12.05;;;24.00;66.60;;;;;;4754763;55;21462;-33
2023/05/25 11:09:25;;;;;;;13.15;11.38;;;24.00;66.70;;;;;;4737251;59;21033;-31
2023/05/25 11:14:34;;;;;;;14.00;12.32;;;24.00;67.40;;;;;;4737681;59;21527;-32
2023/05/25 11:20:22;;;;;;;13.13;11.73;;;24.10;67.00;;;;;;4753732;55;21560;-31
2023/05/25 11:25:38;;;;;;;13.98;12.57;;;24.10;67.10;;;;;;4758769;55;21643;-32
2023/05/25 11:30:41;;;;;;;13.73;12.32;;;24.10;67.10;;;;;;4741438;55;21029;-30
2023/05/25 11:35:44;;;;;;;14.15;12.65;;;24.10;67.30;;;;;;4772477;55;20974;-33
2023/05/25 11:40:44;;;;;;;15.13;12.37;;;24.20;67.30;;;;;;4765698;55;22278;-32
2023/05/25 11:45:55;;;;;;;14.40;12.90;;;24.20;67.40;;;;;;4772516;55;21045;-37
2023/05/25 11:51:06;;;;;;;12.80;11.48;;;24.20;67.40;;;;;;4762318;55;21562;-36
2023/05/25 11:56:06;;;;;;;12.82;11.35;;;24.20;67.50;;;;;;4751143;55;21512;-34
2023/05/25 12:01:21;;;;;;;17.83;12.85;;;24.20;67.70;;;;;;4776282;54;21065;-30
2023/05/25 12:06:25;;;;;;;12.57;11.27;;;24.20;67.70;;;;;;4749078;55;21112;-31
2023/05/25 12:11:34;;;;;;;14.07;12.32;;;24.20;67.60;;;;;;4762260;55;21014;-33
2023/05/25 12:16:39;;;;;;;12.98;11.57;;;24.30;67.70;;;;;;4763220;55;21001;-30
2023/05/25 12:21:40;;;;;;;15.13;12.50;;;24.20;67.70;;;;;;4771708;55;22074;-29
2023/05/25 12:26:57;;;;;;;14.87;12.85;;;24.20;67.80;;;;;;4753659;55;21089;-29
2023/05/25 12:32:03;;;;;;;14.30;12.82;;;24.30;67.90;;;;;;4738349;59;21160;-33
2023/05/25 12:37:04;;;;;;;13.27;11.90;;;24.30;67.70;;;;;;4758842;55;21484;-31
2023/05/25 12:42:16;;;;;;;331.05;296.75;;;24.30;68.40;;;;;;4737517;59;22166;-31
2023/05/25 12:47:22;;;;;;;196.73;175.05;;;24.30;65.60;;;;;;4757064;55;21125;-32
2023/05/25 12:52:44;;;;;;;180.30;160.48;;;24.20;65.10;;;;;;4737795;59;21594;-32
2023/05/25 12:57:46;;;;;;;144.80;127.53;;;24.10;63.30;;;;;;4779067;55;21144;-32
2023/05/25 13:02:46;;;;;;;147.93;126.82;;;24.10;63.10;;;;;;4765718;55;21558;-31
2023/05/25 13:07:47;;;;;;;114.75;100.90;;;24.10;62.90;;;;;;4738991;55;21089;-28
2023/05/25 13:12:52;;;;;;;112.35;100.15;;;24.10;62.30;;;;;;4748746;55;21025;-31
2023/05/25 13:17:53;;;;;;;248.77;219.77;;;24.10;63.10;;;;;;4796842;55;21583;-31
2023/05/25 13:22:54;;;;;;;268.95;240.20;;;24.10;61.30;;;;;;4750761;55;21064;-30
2023/05/25 13:27:56;;;;;;;303.67;270.95;;;24.10;61.60;;;;;;4754408;55;21093;-31
2023/05/25 13:32:57;;;;;;;292.13;261.15;;;24.10;62.60;;;;;;4768443;55;21527;-29
2023/05/25 13:37:58;;;;;;;258.95;231.52;;;24.10;62.60;;;;;;4749886;55;21567;-31
2023/05/25 13:42:59;;;;;;;251.57;225.02;;;24.20;62.20;;;;;;4741577;55;21053;-32
2023/05/25 13:48:00;;;;;;;254.93;228.30;;;24.10;62.50;;;;;;4738791;59;21025;-35
2023/05/25 13:53:01;;;;;;;239.18;213.65;;;24.10;62.80;;;;;;4778219;55;21069;-35
2023/05/25 13:58:02;;;;;;;234.50;209.62;;;24.00;63.00;;;;;;4758154;55;21476;-31
2023/05/25 14:03:03;;;;;;;234.12;208.75;;;24.00;63.20;;;;;;4793133;55;21038;-31
2023/05/25 14:08:04;;;;;;;239.57;214.40;;;24.00;63.30;;;;;;4790134;54;21355;-32
2023/05/25 14:13:05;;;;;;;238.00;213.30;;;24.00;63.50;;;;;;4779853;55;21561;-36
2023/05/25 14:18:05;;;;;;;229.90;205.95;;;24.00;63.60;;;;;;4774661;55;21092;-31
2023/05/25 14:23:06;;;;;;;233.75;209.27;;;24.00;63.80;;;;;;4777881;55;21475;-33
2023/05/25 14:28:07;;;;;;;227.20;203.40;;;24.00;63.80;;;;;;4785260;55;21073;-33
2023/05/25 14:33:12;;;;;;;228.98;204.65;;;24.00;63.90;;;;;;4914714;55;21539;-31
2023/05/25 14:38:13;;;;;;;225.80;202.15;;;24.00;64.00;;;;;;4745679;55;21548;-34
2023/05/25 14:43:14;;;;;;;223.60;200.20;;;24.00;64.00;;;;;;4742716;55;21037;-33
2023/05/25 14:48:17;;;;;;;210.93;188.82;;;23.90;64.10;;;;;;4771176;55;21579;-34
2023/05/25 14:53:18;;;;;;;219.60;196.32;;;23.90;64.10;;;;;;4762500;55;21496;-35
2023/05/25 14:58:19;;;;;;;217.23;194.82;;;23.90;64.10;;;;;;4745659;55;21054;-35
2023/05/25 15:03:20;;;;;;;219.27;196.50;;;24.00;64.20;;;;;;4786315;55;22151;-36
2023/05/25 15:08:22;;;;;;;208.70;186.93;;;23.90;64.20;;;;;;4749533;54;21061;-35
2023/05/25 15:13:23;;;;;;;216.07;193.85;;;24.00;64.30;;;;;;4758910;55;21552;-32
2023/05/25 15:18:27;;;;;;;208.25;187.07;;;23.90;64.30;;;;;;4774355;55;21049;-31
2023/05/25 15:23:28;;;;;;;200.57;179.50;;;23.90;64.40;;;;;;4783856;55;21029;-36
2023/05/25 15:28:32;;;;;;;199.12;178.18;;;23.90;64.40;;;;;;4747778;55;21528;-31
2023/05/25 15:33:33;;;;;;;200.05;179.27;;;23.90;64.50;;;;;;4770208;55;21046;-32
2023/05/25 15:38:34;;;;;;;197.68;177.00;;;23.90;64.50;;;;;;4833744;55;21484;-34
2023/05/25 15:43:35;;;;;;;205.52;184.13;;;23.90;64.50;;;;;;4749699;55;20993;-33
2023/05/25 15:48:36;;;;;;;204.43;183.12;;;23.90;64.60;;;;;;4815922;55;21617;-34
2023/05/25 15:53:37;;;;;;;201.35;180.40;;;23.90;64.70;;;;;;4779803;55;21005;-35
2023/05/25 15:58:38;;;;;;;193.68;173.70;;;23.90;64.70;;;;;;4967809;55;21081;-33
2023/05/25 16:03:40;;;;;;;195.68;175.10;;;23.90;64.80;;;;;;4739904;54;21506;-33
2023/05/25 16:08:41;;;;;;;191.93;171.95;;;23.90;64.80;;;;;;4775953;55;21481;-37
2023/05/25 16:13:42;;;;;;;189.10;169.23;;;23.90;64.80;;;;;;4792948;55;21065;-33
2023/05/25 16:18:44;;;;;;;192.82;172.60;;;23.90;64.80;;;;;;4780286;54;22021;-32
2023/05/25 16:23:45;;;;;;;193.13;173.20;;;23.90;64.80;;;;;;4769420;55;21606;-34
2023/05/25 16:28:48;;;;;;;191.93;171.98;;;23.90;64.90;;;;;;4777162;54;21013;-33
2023/05/25 16:33:49;;;;;;;186.77;167.05;;;23.90;64.90;;;;;;4740897;55;21626;-32
2023/05/25 16:38:50;;;;;;;182.60;163.85;;;23.90;65.00;;;;;;4755852;55;21086;-31
2023/05/25 16:43:51;;;;;;;190.68;171.18;;;23.90;65.00;;;;;;4740248;58;21001;-38
2023/05/25 16:48:52;;;;;;;185.35;166.20;;;23.90;65.00;;;;;;4900463;55;21134;-33
2023/05/25 16:53:53;;;;;;;183.20;163.98;;;23.90;65.00;;;;;;4739887;59;21109;-30
2023/05/25 16:58:55;;;;;;;182.15;163.05;;;23.90;65.00;;;;;;4912821;54;21098;-36
2023/05/25 17:03:55;;;;;;;181.77;163.05;;;23.90;65.00;;;;;;4759889;55;21065;-32
2023/05/25 17:08:56;;;;;;;185.48;165.98;;;23.90;65.10;;;;;;4830700;54;21488;-32
2023/05/25 17:13:57;;;;;;;181.60;162.68;;;23.90;65.10;;;;;;4740440;54;20998;-33
2023/05/25 17:18:59;;;;;;;181.00;162.45;;;23.90;65.10;;;;;;4756810;55;21034;-37
2023/05/25 17:24:00;;;;;;;177.80;159.10;;;23.90;65.10;;;;;;4753903;54;21033;-33
2023/05/25 17:29:01;;;;;;;178.02;159.55;;;23.90;65.20;;;;;;4740008;59;21531;-33
2023/05/25 17:34:02;;;;;;;178.00;159.52;;;23.90;65.20;;;;;;4741816;55;21010;-32
2023/05/25 17:39:03;;;;;;;175.98;157.82;;;23.90;65.20;;;;;;4739014;59;21049;-33
2023/05/25 17:44:04;;;;;;;178.15;159.82;;;23.90;65.20;;;;;;4763034;55;21546;-33
2023/05/25 17:49:05;;;;;;;176.87;158.70;;;23.90;65.20;;;;;;4764401;55;21014;-33
2023/05/25 17:54:06;;;;;;;177.80;159.60;;;23.90;65.20;;;;;;4828180;55;21578;-36
2023/05/25 17:59:08;;;;;;;171.00;153.18;;;23.90;65.20;;;;;;4743450;55;21092;-34
2023/05/25 18:04:09;;;;;;;171.18;153.55;;;23.90;65.20;;;;;;4748646;55;21555;-33
2023/05/25 18:09:10;;;;;;;169.60;152.10;;;23.90;65.20;;;;;;4739959;59;21495;-32
2023/05/25 18:14:11;;;;;;;171.25;153.55;;;23.90;65.30;;;;;;4739998;58;21022;-34
2023/05/25 18:19:14;;;;;;;166.48;149.20;;;23.90;65.30;;;;;;4759998;55;20998;-33
2023/05/25 18:24:15;;;;;;;170.25;152.55;;;23.90;65.30;;;;;;4835521;55;21557;-32
2023/05/25 18:29:16;;;;;;;163.30;146.40;;;23.90;65.30;;;;;;4834577;55;21061;-35
2023/05/25 18:34:17;;;;;;;167.82;150.60;;;23.90;65.30;;;;;;4784268;55;21182;-35
2023/05/25 18:39:18;;;;;;;160.37;143.62;;;23.90;65.40;;;;;;4739096;59;21026;-34
2023/05/25 18:44:19;;;;;;;161.07;144.52;;;23.90;65.50;;;;;;4829770;55;21524;-36
2023/05/25 18:49:20;;;;;;;161.75;145.30;;;23.90;65.40;;;;;;4859722;55;21017;-33
2023/05/25 18:54:20;;;;;;;156.05;140.00;;;23.90;65.50;;;;;;4789401;55;21065;-32
2023/05/25 18:59:21;;;;;;;154.68;138.70;;;23.90;65.50;;;;;;4835721;55;21897;-33
2023/05/25 19:04:22;;;;;;;154.25;138.50;;;23.90;65.50;;;;;;4827907;55;21025;-32
2023/05/25 19:09:23;;;;;;;156.05;140.12;;;23.90;65.50;;;;;;4789763;55;21500;-32
2023/05/25 19:14:24;;;;;;;152.27;136.62;;;23.90;65.50;;;;;;4867452;55;20981;-32
2023/05/25 19:19:25;;;;;;;153.10;137.52;;;23.90;65.50;;;;;;4819366;55;20986;-32
2023/05/25 19:24:25;;;;;;;148.62;133.48;;;23.90;65.50;;;;;;4786656;54;21085;-33
2023/05/25 19:29:26;;;;;;;148.20;132.82;;;23.90;65.50;;;;;;4792972;55;21499;-32
2023/05/25 19:34:27;;;;;;;145.65;130.48;;;23.90;65.50;;;;;;4961280;55;21002;-31
2023/05/25 19:39:30;;;;;;;150.50;135.23;;;23.90;65.60;;;;;;4792024;55;21515;-33
2023/05/25 19:44:31;;;;;;;149.40;134.30;;;23.90;65.60;;;;;;4812961;55;21041;-36
2023/05/25 19:49:32;;;;;;;141.77;127.25;;;23.90;65.70;;;;;;4751556;54;21527;-32
2023/05/25 19:54:36;;;;;;;142.77;128.12;;;23.90;65.70;;;;;;4774717;55;21013;-32
2023/05/25 19:59:39;;;;;;;141.27;126.87;;;23.90;65.70;;;;;;4836418;55;21053;-33
2023/05/25 20:04:41;;;;;;;137.25;123.38;;;23.90;65.70;;;;;;4740017;59;21566;-32
2023/05/25 20:09:42;;;;;;;139.57;125.50;;;23.90;65.80;;;;;;4762898;55;21590;-34
2023/05/25 20:14:43;;;;;;;136.50;122.70;;;23.90;65.70;;;;;;4932194;55;21014;-32
2023/05/25 20:19:44;;;;;;;134.98;121.18;;;23.90;65.80;;;;;;4786370;55;21583;-34
2023/05/25 20:24:45;;;;;;;134.00;120.53;;;23.90;65.80;;;;;;4965187;55;21025;-35
2023/05/25 20:29:48;;;;;;;134.90;121.25;;;23.90;66.40;;;;;;4754194;55;21002;-36
2023/05/25 20:34:49;;;;;;;129.75;116.62;;;23.90;65.80;;;;;;4891345;55;21005;-34
2023/05/25 20:39:50;;;;;;;126.30;113.57;;;23.90;65.80;;;;;;4796313;55;21512;-32
2023/05/25 20:44:51;;;;;;;128.27;115.45;;;23.90;65.80;;;;;;4740747;55;21073;-38
2023/05/25 20:49:52;;;;;;;126.57;113.72;;;23.90;65.80;;;;;;4751943;55;21025;-32
2023/05/25 20:54:53;;;;;;;127.35;114.43;;;23.90;65.80;;;;;;4760241;54;21602;-32
2023/05/25 20:59:58;;;;;;;123.25;110.78;;;23.90;65.90;;;;;;4807737;55;21009;-32
2023/05/25 21:04:59;;;;;;;119.80;107.57;;;23.90;65.90;;;;;;4920326;55;21588;-37
2023/05/25 21:10:00;;;;;;;123.85;111.43;;;23.90;65.90;;;;;;4830288;55;21095;-39
2023/05/25 21:15:01;;;;;;;124.60;112.00;;;23.90;65.90;;;;;;4775429;54;21567;-34
2023/05/25 21:20:02;;;;;;;121.32;109.20;;;23.90;65.90;;;;;;5065482;55;21124;-34
2023/05/25 21:25:04;;;;;;;119.97;107.78;;;23.90;65.90;;;;;;4755027;54;21061;-32
2023/05/25 21:30:06;;;;;;;119.80;107.68;;;23.90;65.90;;;;;;4755923;55;21472;-32
2023/05/25 21:35:07;;;;;;;119.55;107.43;;;23.90;65.90;;;;;;4785036;55;21477;-33
2023/05/25 21:40:08;;;;;;;119.93;107.72;;;23.90;66.00;;;;;;4747109;55;21030;-31
2023/05/25 21:45:09;;;;;;;116.60;104.75;;;23.90;66.00;;;;;;5170539;55;21062;-31
2023/05/25 21:50:10;;;;;;;113.62;102.12;;;23.90;66.00;;;;;;4910934;55;21061;-35
2023/05/25 21:55:11;;;;;;;115.03;103.43;;;23.90;66.00;;;;;;4739901;59;21021;-35
2023/05/25 22:00:13;;;;;;;117.13;105.47;;;23.90;66.00;;;;;;4819512;55;21047;-37
2023/05/25 22:05:14;;;;;;;114.35;103.15;;;23.90;66.00;;;;;;4848419;55;21037;-32
2023/05/25 22:10:15;;;;;;;113.50;102.15;;;23.90;66.00;;;;;;4900801;55;21074;-36
2023/05/25 22:15:16;;;;;;;112.07;100.78;;;23.90;66.70;;;;;;4788041;55;21010;-37
2023/05/25 22:20:21;;;;;;;113.85;102.32;;;23.90;66.00;;;;;;4744072;55;21065;-33
2023/05/25 22:25:22;;;;;;;110.78;99.78;;;23.90;66.00;;;;;;4844555;55;21125;-32
2023/05/25 22:30:22;;;;;;;107.78;96.95;;;23.90;66.00;;;;;;4783078;55;21050;-33
2023/05/25 22:35:23;;;;;;;108.70;97.50;;;23.90;66.10;;;;;;4740123;59;21468;-31
2023/05/25 22:40:24;;;;;;;108.97;98.25;;;23.90;66.10;;;;;;4790377;54;21021;-32
2023/05/25 22:45:25;;;;;;;108.55;98.00;;;23.90;66.10;;;;;;5158671;55;20997;-32
2023/05/25 22:50:26;;;;;;;105.15;94.57;;;23.90;66.10;;;;;;4742518;55;21088;-35
2023/05/25 22:55:26;;;;;;;107.18;96.68;;;23.90;66.10;;;;;;4796097;55;21464;-32
2023/05/25 23:00:27;;;;;;;107.40;96.60;;;23.90;66.10;;;;;;4859416;55;21010;-33
2023/05/25 23:05:28;;;;;;;104.50;94.15;;;23.90;66.20;;;;;;4855378;55;21045;-33
2023/05/25 23:10:29;;;;;;;107.37;96.85;;;23.90;66.10;;;;;;4790877;55;21000;-32
2023/05/25 23:15:30;;;;;;;103.47;93.37;;;23.90;66.10;;;;;;4918067;55;21161;-33
2023/05/25 23:20:32;;;;;;;102.78;92.78;;;23.90;66.10;;;;;;4781088;55;21456;-33
2023/05/25 23:25:33;;;;;;;100.53;90.53;;;23.90;66.10;;;;;;4767665;55;21049;-33
2023/05/25 23:30:34;;;;;;;99.87;90.03;;;23.90;66.10;;;;;;4913370;55;21080;-32
2023/05/25 23:35:35;;;;;;;103.72;93.53;;;23.90;66.20;;;;;;4740106;59;21021;-31
2023/05/25 23:40:36;;;;;;;99.80;90.10;;;23.90;66.20;;;;;;4882327;54;21095;-33
2023/05/25 23:45:36;;;;;;;95.35;85.75;;;23.90;66.10;;;;;;4740499;54;21555;-30
2023/05/25 23:50:39;;;;;;;98.40;88.55;;;23.90;66.10;;;;;;4740479;59;21006;-35
2023/05/25 23:55:40;;;;;;;94.32;84.75;;;23.90;66.10;;;;;;4746404;55;21017;-32
